Time;durP1;ratioP1;P1;durP2;ratioP2;P2;SDS_P1;SDS_P2;PMS_P1;PMS_P2;Temp;Humidity;BMP_temperature;BMP_pressure;BME280_temperature;BME280_humidity;BME280_pressure;Samples;Min_cycle;Max_cycle;Signal;HPM_P1;HPM_P2
2023/04/11 00:00:12;;;;;;;3.88;1.10;;;8.50;99.90;;;;;;5046084;28;20041;-82
2023/04/11 00:02:37;;;;;;;6.85;1.33;;;8.40;99.90;;;;;;5069535;28;20047;-82
2023/04/11 00:05:06;;;;;;;6.32;1.55;;;8.30;99.90;;;;;;5061572;28;20533;-82
2023/04/11 00:07:32;;;;;;;5.03;1.20;;;8.30;99.90;;;;;;5070689;28;20041;-81
2023/04/11 00:09:58;;;;;;;9.98;2.30;;;8.20;99.90;;;;;;5064749;28;20798;-81
2023/04/11 00:12:23;;;;;;;3.15;1.30;;;8.20;99.90;;;;;;5063646;28;20064;-82
2023/04/11 00:14:52;;;;;;;11.73;2.00;;;8.20;99.90;;;;;;5071409;28;20590;-82
2023/04/11 00:17:18;;;;;;;8.63;1.80;;;8.10;99.90;;;;;;5066410;28;20041;-83
2023/04/11 00:19:47;;;;;;;9.27;1.75;;;8.10;99.90;;;;;;5066892;28;20045;-82
2023/04/11 00:22:15;;;;;;;8.13;1.60;;;8.10;99.90;;;;;;5063846;28;20519;-83
2023/04/11 00:24:40;;;;;;;6.78;1.50;;;8.00;99.90;;;;;;5063431;28;20045;-82
2023/04/11 00:27:06;;;;;;;8.35;2.00;;;8.00;99.90;;;;;;5065961;28;20135;-83
2023/04/11 00:29:33;;;;;;;6.80;1.38;;;7.90;99.90;;;;;;5066179;28;20051;-82
2023/04/11 00:31:59;;;;;;;9.07;1.90;;;7.90;99.90;;;;;;5068096;28;20067;-82
2023/04/11 00:34:25;;;;;;;7.45;2.20;;;7.80;99.90;;;;;;5068794;28;20105;-82
2023/04/11 00:36:51;;;;;;;6.72;1.85;;;7.70;99.90;;;;;;5068028;28;20067;-83
2023/04/11 00:39:17;;;;;;;8.02;1.63;;;7.70;99.90;;;;;;5066558;28;20048;-82
2023/04/11 00:41:43;;;;;;;10.52;1.88;;;7.70;99.90;;;;;;5052837;28;20457;-82
2023/04/11 00:44:10;;;;;;;14.77;2.35;;;7.70;99.90;;;;;;5069351;28;20044;-82
2023/04/11 00:46:36;;;;;;;6.80;1.63;;;7.60;99.90;;;;;;5064256;28;20066;-82
2023/04/11 00:49:02;;;;;;;10.57;2.40;;;7.60;99.90;;;;;;5075048;28;20092;-83
2023/04/11 00:51:27;;;;;;;9.88;2.30;;;7.50;99.90;;;;;;5064234;28;20071;-81
2023/04/11 00:53:53;;;;;;;12.05;2.53;;;7.50;99.90;;;;;;5067781;28;20043;-82
2023/04/11 00:56:19;;;;;;;14.73;2.58;;;7.50;99.90;;;;;;5070841;28;20167;-82
2023/04/11 00:58:45;;;;;;;12.77;2.38;;;7.50;99.90;;;;;;5068806;28;20044;-83
2023/04/11 01:01:10;;;;;;;9.93;2.42;;;7.50;99.90;;;;;;5065109;28;20535;-82
2023/04/11 01:03:38;;;;;;;10.60;2.08;;;7.50;99.90;;;;;;5061076;28;20048;-82
2023/04/11 01:06:08;;;;;;;10.18;2.13;;;7.40;99.90;;;;;;5066223;28;20037;-82
2023/04/11 01:08:38;;;;;;;10.05;2.20;;;7.40;99.90;;;;;;5065274;28;20546;-83
2023/04/11 01:11:05;;;;;;;16.38;2.25;;;7.40;99.90;;;;;;5068731;28;20470;-82
2023/04/11 01:13:32;;;;;;;11.38;2.05;;;7.40;99.90;;;;;;5069450;28;20040;-82
2023/04/11 01:15:58;;;;;;;12.40;2.03;;;7.30;99.90;;;;;;5058003;28;20060;-82
2023/04/11 01:18:27;;;;;;;8.68;1.85;;;7.30;99.90;;;;;;5046340;28;20044;-82
2023/04/11 01:20:53;;;;;;;9.40;1.77;;;7.30;99.90;;;;;;5059816;28;20515;-82
2023/04/11 01:23:23;;;;;;;11.38;2.60;;;7.30;99.90;;;;;;5062297;28;20530;-82
2023/04/11 01:25:49;;;;;;;12.27;2.22;;;7.20;99.90;;;;;;5059002;28;20075;-82
2023/04/11 01:28:16;;;;;;;9.45;2.33;;;7.20;99.90;;;;;;5064547;28;20068;-82
2023/04/11 01:30:42;;;;;;;10.73;2.03;;;7.20;99.90;;;;;;5068019;28;20377;-83
2023/04/11 01:33:09;;;;;;;6.72;1.80;;;7.30;99.90;;;;;;5066174;28;20044;-81
2023/04/11 01:35:35;;;;;;;9.93;1.60;;;7.30;99.90;;;;;;5060615;28;20059;-82
2023/04/11 01:38:02;;;;;;;13.45;2.33;;;7.40;99.90;;;;;;5063120;28;20034;-82
2023/04/11 01:40:28;;;;;;;8.77;2.28;;;7.40;99.90;;;;;;5065157;28;20045;-82
2023/04/11 01:42:54;;;;;;;10.48;1.80;;;7.50;99.90;;;;;;5065370;28;20044;-82
2023/04/11 01:45:20;;;;;;;9.48;1.60;;;7.40;99.90;;;;;;5039547;28;20551;-81
2023/04/11 01:47:46;;;;;;;10.43;2.03;;;7.50;99.90;;;;;;5060295;28;20052;-81
2023/04/11 01:50:12;;;;;;;8.32;1.45;;;7.50;99.90;;;;;;5061787;28;20045;-82
2023/04/11 01:52:37;;;;;;;8.20;1.42;;;7.50;99.90;;;;;;5071309;28;20311;-81
2023/04/11 01:55:03;;;;;;;5.18;1.52;;;7.50;99.90;;;;;;5061568;28;20041;-81
2023/04/11 01:57:29;;;;;;;4.75;1.83;;;7.50;99.90;;;;;;5065225;28;20036;-82
2023/04/11 01:59:55;;;;;;;5.20;1.20;;;7.50;99.90;;;;;;5066950;28;20041;-81
2023/04/11 02:02:20;;;;;;;4.63;1.63;;;7.50;99.90;;;;;;5064911;28;20099;-82
2023/04/11 02:04:46;;;;;;;4.25;0.77;;;7.50;99.90;;;;;;5066770;28;20086;-81
2023/04/11 02:07:11;;;;;;;4.82;1.23;;;7.50;99.90;;;;;;5069295;28;20639;-81
2023/04/11 02:09:37;;;;;;;3.85;1.35;;;7.50;99.90;;;;;;5063760;28;20139;-81
2023/04/11 02:12:03;;;;;;;3.63;0.77;;;7.50;99.90;;;;;;5070324;28;20048;-81
2023/04/11 02:14:42;;;;;;;4.00;0.90;;;7.50;99.90;;;;;;5061674;28;20044;-81
2023/04/11 02:17:08;;;;;;;3.00;1.38;;;7.40;99.90;;;;;;5062464;28;20040;-81
2023/04/11 02:19:35;;;;;;;6.82;1.58;;;7.40;99.90;;;;;;5066412;28;20043;-81
2023/04/11 02:22:01;;;;;;;4.65;1.02;;;7.40;99.90;;;;;;5072344;28;20036;-80
2023/04/11 02:24:29;;;;;;;2.38;1.00;;;7.40;99.90;;;;;;5066586;28;20654;-80
2023/04/11 02:26:55;;;;;;;4.35;1.08;;;7.40;99.90;;;;;;5067491;28;20045;-80
2023/04/11 02:29:21;;;;;;;6.43;1.00;;;7.40;99.90;;;;;;5041759;28;20059;-81
2023/04/11 02:31:49;;;;;;;6.07;1.30;;;7.40;99.90;;;;;;5071421;28;20052;-80
2023/04/11 02:34:15;;;;;;;3.70;1.02;;;7.40;99.90;;;;;;5069610;28;20055;-81
2023/04/11 02:36:42;;;;;;;4.22;1.00;;;7.40;99.90;;;;;;5066964;28;20504;-81
2023/04/11 02:39:08;;;;;;;5.57;1.25;;;7.40;99.90;;;;;;5073397;28;20041;-80
2023/04/11 02:41:36;;;;;;;2.50;1.00;;;7.40;99.90;;;;;;5072343;28;20094;-80
2023/04/11 02:44:02;;;;;;;3.78;1.08;;;7.40;99.90;;;;;;5072879;28;20524;-80
2023/04/11 02:46:28;;;;;;;2.65;1.00;;;7.40;99.90;;;;;;5065611;28;20040;-80
2023/04/11 02:48:53;;;;;;;3.78;1.00;;;7.40;99.90;;;;;;5067969;28;20102;-81
2023/04/11 02:51:19;;;;;;;6.05;1.33;;;7.40;99.90;;;;;;5069545;28;20044;-81
2023/04/11 02:53:45;;;;;;;5.85;1.35;;;7.40;99.90;;;;;;5061811;28;20044;-80
2023/04/11 02:56:10;;;;;;;3.80;1.20;;;7.30;99.90;;;;;;5069221;28;20052;-81
2023/04/11 02:58:37;;;;;;;3.80;1.10;;;7.30;99.90;;;;;;5056093;28;20232;-81
2023/04/11 03:01:07;;;;;;;5.07;1.20;;;7.30;99.90;;;;;;5068668;28;20045;-80
2023/04/11 03:03:33;;;;;;;5.70;1.10;;;7.40;99.90;;;;;;5068014;28;20045;-80
2023/04/11 03:05:58;;;;;;;2.50;1.20;;;7.30;99.90;;;;;;5062380;28;20455;-82
2023/04/11 03:08:24;;;;;;;7.47;1.67;;;7.40;99.90;;;;;;5066487;28;20404;-81
2023/04/11 03:10:50;;;;;;;5.95;1.42;;;7.40;99.90;;;;;;5074513;28;20095;-80
2023/04/11 03:13:15;;;;;;;5.18;1.55;;;7.40;99.90;;;;;;5049509;28;20086;-81
2023/04/11 03:15:41;;;;;;;6.50;1.95;;;7.40;99.90;;;;;;5072198;28;20451;-81
2023/04/11 03:18:06;;;;;;;5.30;1.38;;;7.40;99.90;;;;;;5062153;28;20045;-80
2023/04/11 03:20:32;;;;;;;5.07;1.30;;;7.30;99.90;;;;;;5066283;28;20041;-82
2023/04/11 03:22:58;;;;;;;5.82;1.27;;;7.40;99.90;;;;;;5071930;28;20040;-81
2023/04/11 03:25:23;;;;;;;6.22;1.30;;;7.30;99.90;;;;;;5069521;28;20048;-82
2023/04/11 03:27:49;;;;;;;4.75;1.30;;;7.30;99.90;;;;;;5070409;28;20385;-81
2023/04/11 03:30:15;;;;;;;3.28;1.20;;;7.30;99.90;;;;;;5062858;28;20048;-81
2023/04/11 03:32:40;;;;;;;5.18;1.30;;;7.30;99.90;;;;;;5069873;28;20496;-81
2023/04/11 03:35:06;;;;;;;6.35;1.30;;;7.30;99.90;;;;;;5066961;28;20121;-82
2023/04/11 03:37:32;;;;;;;5.47;1.38;;;7.30;99.90;;;;;;5071091;28;20553;-82
2023/04/11 03:39:57;;;;;;;4.82;1.00;;;7.30;99.90;;;;;;5073501;28;20043;-81
2023/04/11 03:42:23;;;;;;;6.15;1.80;;;7.30;99.90;;;;;;5060645;28;20233;-81
2023/04/11 03:44:49;;;;;;;9.20;1.45;;;7.30;99.90;;;;;;5068250;28;20407;-81
2023/04/11 03:47:14;;;;;;;6.50;1.60;;;7.30;99.90;;;;;;5072436;28;20045;-82
2023/04/11 03:49:40;;;;;;;9.07;1.73;;;7.30;99.90;;;;;;5067577;28;20043;-80
2023/04/11 03:52:06;;;;;;;5.22;1.52;;;7.30;99.90;;;;;;5065582;28;20127;-81
2023/04/11 03:54:32;;;;;;;7.40;1.67;;;7.40;99.90;;;;;;5071501;28;20044;-80
2023/04/11 03:56:57;;;;;;;6.00;1.58;;;7.40;99.90;;;;;;5070555;28;20381;-81
2023/04/11 03:59:23;;;;;;;3.53;1.38;;;7.40;99.90;;;;;;5067413;28;20040;-81
2023/04/11 04:01:48;;;;;;;6.68;1.83;;;7.40;99.90;;;;;;5067478;28;20454;-81
2023/04/11 04:04:14;;;;;;;11.18;2.22;;;7.50;99.90;;;;;;5067361;28;20539;-81
2023/04/11 04:06:40;;;;;;;10.15;1.80;;;7.50;99.90;;;;;;5062410;28;20404;-80
2023/04/11 04:09:05;;;;;;;11.18;2.40;;;7.50;99.90;;;;;;5070156;28;20154;-81
2023/04/11 04:11:31;;;;;;;7.95;2.13;;;7.50;99.90;;;;;;5069036;28;20093;-81
2023/04/11 04:13:57;;;;;;;11.13;2.60;;;7.60;99.90;;;;;;5065484;28;20111;-80
2023/04/11 04:16:23;;;;;;;10.77;2.33;;;7.60;99.90;;;;;;5066676;28;20045;-80
2023/04/11 04:18:48;;;;;;;7.38;2.20;;;7.60;99.90;;;;;;5068128;28;20063;-80
2023/04/11 04:21:15;;;;;;;11.65;2.10;;;7.60;99.90;;;;;;5071797;28;20097;-80
2023/04/11 04:23:46;;;;;;;8.75;2.22;;;7.60;99.90;;;;;;5068578;28;20500;-80
2023/04/11 04:26:14;;;;;;;7.50;2.33;;;7.60;99.90;;;;;;5062806;28;20053;-80
2023/04/11 04:28:44;;;;;;;9.25;2.47;;;7.60;99.90;;;;;;5064233;28;20511;-80
2023/04/11 04:31:11;;;;;;;12.48;2.33;;;7.50;99.90;;;;;;5063391;28;20102;-80
2023/04/11 04:33:37;;;;;;;10.98;2.30;;;7.50;99.90;;;;;;5068030;28;20044;-80
2023/04/11 04:36:03;;;;;;;10.32;2.55;;;7.60;99.90;;;;;;5064765;28;20041;-80
2023/04/11 04:38:29;;;;;;;8.55;3.00;;;7.60;99.90;;;;;;5064645;28;20049;-80
2023/04/11 04:40:55;;;;;;;7.40;2.33;;;7.60;99.90;;;;;;5057664;28;20150;-81
2023/04/11 04:43:22;;;;;;;5.07;2.03;;;7.50;99.90;;;;;;5055966;28;20120;-79
2023/04/11 04:45:49;;;;;;;9.73;3.22;;;7.50;99.90;;;;;;5056115;28;20051;-79
2023/04/11 04:48:16;;;;;;;10.73;2.63;;;7.40;99.90;;;;;;5055721;28;20051;-79
2023/04/11 04:50:41;;;;;;;9.23;2.90;;;7.40;99.90;;;;;;5052269;28;20048;-79
2023/04/11 04:53:07;;;;;;;8.57;2.45;;;7.40;99.90;;;;;;5060838;28;20041;-79
2023/04/11 04:55:33;;;;;;;8.68;2.60;;;7.30;99.90;;;;;;5057801;28;20044;-79
2023/04/11 04:57:58;;;;;;;9.10;2.78;;;7.30;99.90;;;;;;5057961;28;20040;-79
2023/04/11 05:00:24;;;;;;;14.20;3.03;;;7.30;99.90;;;;;;5054621;28;20143;-80
2023/04/11 05:02:53;;;;;;;10.98;2.47;;;7.30;99.90;;;;;;5064889;28;20576;-80
2023/04/11 05:05:19;;;;;;;11.70;2.35;;;7.30;99.90;;;;;;5056405;28;20040;-79
2023/04/11 05:07:44;;;;;;;7.35;2.10;;;7.30;99.90;;;;;;5063936;28;20446;-79
2023/04/11 05:10:10;;;;;;;7.05;2.40;;;7.30;99.90;;;;;;5055367;28;20107;-79
2023/04/11 05:12:35;;;;;;;11.80;2.53;;;7.30;99.90;;;;;;5055285;28;20041;-79
2023/04/11 05:15:01;;;;;;;9.07;2.42;;;7.30;99.90;;;;;;5059604;28;20086;-79
2023/04/11 05:17:28;;;;;;;9.15;2.58;;;7.30;99.90;;;;;;5055894;28;20067;-79
2023/04/11 05:19:54;;;;;;;8.27;2.33;;;7.40;99.90;;;;;;5054977;28;20416;-80
2023/04/11 05:22:20;;;;;;;13.13;2.30;;;7.30;99.90;;;;;;5067844;28;20052;-79
2023/04/11 05:24:45;;;;;;;13.48;2.30;;;7.30;99.90;;;;;;5069521;28;20411;-79
2023/04/11 05:27:12;;;;;;;10.32;2.63;;;7.40;99.90;;;;;;5058458;28;20041;-79
2023/04/11 05:29:38;;;;;;;12.77;2.92;;;7.40;99.90;;;;;;5053376;28;20041;-79
2023/04/11 05:32:03;;;;;;;8.10;2.17;;;7.40;99.90;;;;;;5073334;28;20567;-79
2023/04/11 05:34:31;;;;;;;10.13;2.30;;;7.40;99.90;;;;;;5051997;28;20523;-79
2023/04/11 05:36:57;;;;;;;11.23;2.92;;;7.40;99.90;;;;;;5050062;28;20174;-79
2023/04/11 05:39:22;;;;;;;8.65;2.70;;;7.40;99.90;;;;;;5050303;28;20128;-78
2023/04/11 05:41:48;;;;;;;12.35;3.13;;;7.40;99.90;;;;;;5051768;28;20045;-79
2023/04/11 05:44:14;;;;;;;16.13;3.88;;;7.40;99.90;;;;;;5049696;28;20041;-79
2023/04/11 05:46:39;;;;;;;10.00;2.40;;;7.40;99.90;;;;;;5050760;28;20064;-79
2023/04/11 05:49:05;;;;;;;12.00;2.90;;;7.50;99.90;;;;;;5051021;28;20040;-79
2023/04/11 05:51:31;;;;;;;10.57;2.70;;;7.50;99.90;;;;;;5050613;28;20041;-79
2023/04/11 05:53:56;;;;;;;8.80;2.40;;;7.50;99.90;;;;;;5067182;28;20052;-79
2023/04/11 05:56:22;;;;;;;15.57;3.25;;;7.50;99.90;;;;;;5064172;28;20048;-79
2023/04/11 05:58:47;;;;;;;15.18;3.40;;;7.50;99.90;;;;;;5059364;28;20480;-78
2023/04/11 06:01:17;;;;;;;11.88;2.30;;;7.60;99.90;;;;;;5059481;28;20036;-78
2023/04/11 06:03:45;;;;;;;8.52;2.80;;;7.70;99.90;;;;;;5057686;28;20049;-78
2023/04/11 06:06:11;;;;;;;10.02;2.42;;;7.70;99.90;;;;;;5060515;28;20041;-79
2023/04/11 06:08:37;;;;;;;12.50;2.67;;;7.70;99.90;;;;;;5059220;28;20580;-79
2023/04/11 06:11:03;;;;;;;10.10;2.70;;;7.60;99.90;;;;;;5046118;28;20071;-79
2023/04/11 06:13:28;;;;;;;11.90;2.63;;;7.60;99.90;;;;;;5057054;28;20500;-79
2023/04/11 06:15:54;;;;;;;9.73;2.88;;;7.70;99.90;;;;;;5059631;28;20523;-79
2023/04/11 06:18:20;;;;;;;8.48;2.20;;;7.70;99.90;;;;;;5060004;28;20041;-79
2023/04/11 06:20:46;;;;;;;13.52;2.90;;;7.70;99.90;;;;;;5065213;28;20037;-78
2023/04/11 06:23:11;;;;;;;10.80;2.75;;;7.70;99.90;;;;;;5071850;28;20115;-78
2023/04/11 06:25:37;;;;;;;14.10;2.97;;;7.70;99.90;;;;;;5060612;28;20044;-79
2023/04/11 06:28:02;;;;;;;6.40;2.20;;;7.70;99.90;;;;;;5058312;28;20088;-78
2023/04/11 06:30:28;;;;;;;12.63;2.42;;;7.70;99.90;;;;;;5057291;28;20460;-79
2023/04/11 06:32:55;;;;;;;12.57;2.33;;;7.70;99.90;;;;;;5057799;28;20520;-78
2023/04/11 06:35:23;;;;;;;8.10;2.40;;;7.80;99.90;;;;;;5056584;28;20044;-79
2023/04/11 06:37:50;;;;;;;12.27;2.70;;;7.80;99.90;;;;;;5059565;28;20127;-79
2023/04/11 06:40:18;;;;;;;13.25;2.88;;;7.90;99.90;;;;;;5061114;28;20098;-80
2023/04/11 06:42:44;;;;;;;12.20;3.50;;;7.90;99.90;;;;;;5060702;28;20120;-80
2023/04/11 06:45:10;;;;;;;10.60;2.83;;;8.00;99.90;;;;;;5063172;28;20174;-79
2023/04/11 06:47:36;;;;;;;6.82;2.30;;;8.10;99.90;;;;;;5060254;28;20451;-80
2023/04/11 06:50:02;;;;;;;9.57;2.72;;;8.10;99.90;;;;;;5059804;28;20127;-79
2023/04/11 06:52:29;;;;;;;12.48;3.25;;;8.10;99.90;;;;;;5069835;28;20040;-79
2023/04/11 06:54:54;;;;;;;12.70;2.65;;;8.10;99.90;;;;;;5051567;28;20051;-79
2023/04/11 06:57:20;;;;;;;15.10;2.78;;;8.10;99.90;;;;;;5053473;28;20041;-79
2023/04/11 06:59:45;;;;;;;15.73;2.55;;;8.20;99.90;;;;;;5057169;28;20032;-79
2023/04/11 07:02:11;;;;;;;13.65;2.70;;;8.40;99.90;;;;;;5054947;28;20041;-79
2023/04/11 07:04:36;;;;;;;12.88;2.63;;;8.40;99.90;;;;;;5057801;28;20048;-78
2023/04/11 07:07:03;;;;;;;9.30;2.00;;;8.30;99.90;;;;;;5066209;28;20047;-79
2023/04/11 07:09:29;;;;;;;9.60;2.20;;;8.00;99.90;;;;;;5061372;28;20036;-79
2023/04/11 07:11:55;;;;;;;9.77;2.22;;;7.80;99.90;;;;;;5070297;28;20468;-78
2023/04/11 07:14:21;;;;;;;9.88;2.10;;;7.60;99.90;;;;;;5062871;28;20095;-79
2023/04/11 07:16:46;;;;;;;8.98;2.60;;;7.60;99.90;;;;;;5068302;28;20477;-79
2023/04/11 07:19:12;;;;;;;10.68;2.33;;;7.80;99.90;;;;;;5066409;28;20044;-79
2023/04/11 07:21:37;;;;;;;5.30;2.00;;;7.80;99.90;;;;;;5063921;28;20457;-79
2023/04/11 07:24:05;;;;;;;8.88;2.15;;;7.70;99.90;;;;;;5068062;28;20041;-79
2023/04/11 07:26:31;;;;;;;12.90;2.38;;;7.60;99.90;;;;;;5060288;28;20099;-80
2023/04/11 07:28:57;;;;;;;9.73;2.67;;;7.60;99.90;;;;;;5055548;28;20504;-79
2023/04/11 07:31:23;;;;;;;11.23;2.40;;;7.80;99.90;;;;;;5057191;28;20041;-79
2023/04/11 07:33:50;;;;;;;15.18;2.83;;;8.00;99.90;;;;;;5062071;28;20064;-79
2023/04/11 07:36:16;;;;;;;13.00;3.08;;;8.20;99.90;;;;;;5052364;28;20178;-79
2023/04/11 07:38:41;;;;;;;11.80;2.40;;;8.30;99.90;;;;;;5058720;28;20049;-80
2023/04/11 07:41:08;;;;;;;11.52;2.30;;;8.40;99.90;;;;;;5053981;28;20044;-79
2023/04/11 07:43:34;;;;;;;13.27;3.33;;;8.40;99.90;;;;;;5055506;28;20041;-79
2023/04/11 07:46:00;;;;;;;12.43;2.25;;;8.50;99.90;;;;;;5053748;28;20091;-79
2023/04/11 07:48:26;;;;;;;14.75;2.65;;;8.60;99.90;;;;;;5060861;28;20028;-79
2023/04/11 07:50:53;;;;;;;11.90;2.58;;;8.70;99.90;;;;;;5052064;28;20040;-79
2023/04/11 07:53:20;;;;;;;13.32;2.80;;;8.70;99.90;;;;;;5056836;28;21127;-80
2023/04/11 07:55:46;;;;;;;10.68;2.95;;;8.60;99.90;;;;;;5050514;28;20076;-79
2023/04/11 07:58:11;;;;;;;12.32;2.63;;;8.60;99.90;;;;;;5053120;28;20126;-80
2023/04/11 08:00:37;;;;;;;7.45;1.88;;;8.40;99.90;;;;;;5056797;28;20048;-79
2023/04/11 08:03:07;;;;;;;8.25;1.77;;;8.30;99.90;;;;;;5063248;28;20040;-80
2023/04/11 08:05:34;;;;;;;5.88;1.70;;;8.20;99.90;;;;;;5057226;28;20044;-79
2023/04/11 08:08:04;;;;;;;7.88;2.40;;;8.20;99.90;;;;;;5056770;28;20464;-79
2023/04/11 08:10:29;;;;;;;10.43;2.17;;;8.50;99.90;;;;;;5057438;28;20044;-80
2023/04/11 08:12:55;;;;;;;9.50;2.42;;;8.80;99.90;;;;;;5066151;28;20041;-80
2023/04/11 08:15:21;;;;;;;9.02;2.50;;;9.10;99.90;;;;;;5072291;28;20098;-80
2023/04/11 08:17:48;;;;;;;10.20;2.35;;;9.50;99.90;;;;;;5060959;28;20397;-81
2023/04/11 08:20:15;;;;;;;9.82;2.10;;;9.70;99.90;;;;;;5039150;28;20033;-81
2023/04/11 08:22:43;;;;;;;12.70;2.80;;;9.90;99.90;;;;;;5065204;28;20149;-81
2023/04/11 08:25:10;;;;;;;8.48;1.75;;;9.90;99.90;;;;;;5066467;28;20036;-81
2023/04/11 08:27:37;;;;;;;7.70;1.73;;;9.80;99.90;;;;;;5064182;28;20116;-80
2023/04/11 08:30:04;;;;;;;8.50;2.40;;;9.60;99.90;;;;;;5057817;28;20044;-80
2023/04/11 08:32:30;;;;;;;7.13;1.63;;;9.60;99.90;;;;;;5056801;28;20045;-81
2023/04/11 08:34:56;;;;;;;8.30;2.03;;;9.60;99.90;;;;;;5061148;28;20052;-80
2023/04/11 08:37:21;;;;;;;6.65;1.70;;;9.70;99.90;;;;;;5064034;28;20040;-81
2023/04/11 08:39:47;;;;;;;9.48;1.98;;;10.00;99.90;;;;;;5060223;28;20033;-81
2023/04/11 08:42:26;;;;;;;8.10;2.08;;;10.10;99.90;;;;;;5061690;28;20049;-79
2023/04/11 08:44:54;;;;;;;10.95;2.05;;;10.40;99.90;;;;;;5054581;28;20087;-79
2023/04/11 08:47:20;;;;;;;11.30;1.63;;;10.50;99.90;;;;;;5073676;28;20028;-81
2023/04/11 08:49:46;;;;;;;8.05;1.75;;;10.60;99.90;;;;;;5066405;28;20518;-81
2023/04/11 08:52:12;;;;;;;6.55;1.90;;;10.90;99.90;;;;;;5067141;28;20106;-81
2023/04/11 08:54:38;;;;;;;8.15;1.65;;;10.80;99.90;;;;;;5072279;28;20503;-81
2023/04/11 08:57:03;;;;;;;4.80;1.20;;;10.40;99.90;;;;;;5071529;28;20044;-80
2023/04/11 08:59:32;;;;;;;3.40;1.00;;;9.50;99.90;;;;;;5070630;28;20051;-81
2023/04/11 09:02:08;;;;;;;6.18;1.20;;;8.70;99.90;;;;;;5069362;28;20049;-80
2023/04/11 09:04:41;;;;;;;5.05;1.50;;;8.00;99.90;;;;;;5073153;28;20189;-81
2023/04/11 09:07:07;;;;;;;5.78;1.80;;;8.00;99.90;;;;;;5068012;28;20102;-81
2023/04/11 09:09:35;;;;;;;6.55;1.90;;;8.20;99.90;;;;;;5074363;28;20036;-81
2023/04/11 09:12:01;;;;;;;10.52;2.20;;;8.60;99.90;;;;;;5070478;28;20083;-80
2023/04/11 09:14:27;;;;;;;11.90;2.03;;;8.90;99.90;;;;;;5073651;28;20063;-80
2023/04/11 09:16:56;;;;;;;12.10;2.15;;;9.30;99.90;;;;;;5073971;28;20036;-80
2023/04/11 09:19:23;;;;;;;10.43;1.83;;;9.50;99.90;;;;;;5068506;28;20044;-81
2023/04/11 09:21:49;;;;;;;6.68;1.90;;;9.50;99.90;;;;;;5070645;28;20120;-81
2023/04/11 09:24:15;;;;;;;8.52;1.80;;;9.40;99.90;;;;;;5067555;28;20491;-81
2023/04/11 09:26:41;;;;;;;8.52;1.77;;;9.30;99.90;;;;;;5067467;28;20028;-80
2023/04/11 09:29:07;;;;;;;8.65;1.80;;;9.50;99.90;;;;;;5071262;28;20040;-80
2023/04/11 09:31:43;;;;;;;9.68;1.80;;;9.70;99.90;;;;;;5069938;28;20040;-81
2023/04/11 09:34:11;;;;;;;9.05;1.90;;;10.00;99.90;;;;;;5071941;28;20044;-79
2023/04/11 09:36:37;;;;;;;8.20;1.35;;;9.90;99.90;;;;;;5049995;28;20128;-79
2023/04/11 09:39:17;;;;;;;4.75;1.27;;;9.60;99.90;;;;;;5066173;28;20037;-79
2023/04/11 09:41:42;;;;;;;9.00;1.45;;;9.10;99.90;;;;;;5065916;28;20040;-79
2023/04/11 09:44:08;;;;;;;5.55;1.42;;;8.90;99.90;;;;;;5069981;28;20473;-78
2023/04/11 09:46:33;;;;;;;8.43;2.45;;;9.10;99.90;;;;;;5069281;28;20131;-79
2023/04/11 09:49:01;;;;;;;9.75;2.17;;;9.50;99.90;;;;;;5065167;28;20036;-78
2023/04/11 09:51:27;;;;;;;14.98;2.17;;;9.90;99.90;;;;;;5070179;28;20058;-78
2023/04/11 09:53:54;;;;;;;7.95;1.88;;;10.20;99.90;;;;;;5066551;28;20044;-77
2023/04/11 09:56:20;;;;;;;5.18;1.17;;;10.50;99.90;;;;;;5070538;28;20466;-78
2023/04/11 09:58:47;;;;;;;5.35;1.20;;;10.10;99.90;;;;;;5063634;28;20290;-82
2023/04/11 10:01:13;;;;;;;4.32;0.90;;;9.40;99.90;;;;;;5066565;28;20470;-81
2023/04/11 10:03:39;;;;;;;4.28;1.00;;;8.90;99.90;;;;;;5070940;28;20037;-81
2023/04/11 10:06:32;;;;;;;4.93;1.42;;;8.70;99.90;;;;;;5066495;28;20104;-81
2023/04/11 10:09:08;;;;;;;11.57;1.63;;;8.70;99.90;;;;;;5065330;28;20493;-81
2023/04/11 10:11:34;;;;;;;9.07;1.90;;;8.20;99.90;;;;;;5058906;28;20075;-82
2023/04/11 10:14:00;;;;;;;5.03;1.30;;;7.60;99.90;;;;;;5064668;28;20049;-82
2023/04/11 10:16:27;;;;;;;7.70;2.67;;;7.30;99.90;;;;;;5067902;28;20040;-78
2023/04/11 10:18:52;;;;;;;10.57;1.65;;;7.10;99.90;;;;;;5070188;28;20547;-78
2023/04/11 10:21:33;;;;;;;7.20;1.75;;;7.00;99.90;;;;;;5065229;28;20032;-79
2023/04/11 10:24:09;;;;;;;6.80;1.70;;;6.90;99.90;;;;;;5059317;28;20044;-78
2023/04/11 10:27:05;;;;;;;4.63;1.17;;;6.70;99.90;;;;;;5063734;28;20040;-79
2023/04/11 10:29:33;;;;;;;3.30;0.95;;;6.30;99.90;;;;;;5061248;28;20055;-79
2023/04/11 10:32:14;;;;;;;3.80;0.85;;;6.10;99.90;;;;;;5062890;28;20412;-80
2023/04/11 10:34:49;;;;;;;4.50;1.40;;;5.60;99.90;;;;;;5050836;28;20048;-79
2023/04/11 10:37:29;;;;;;;6.15;1.33;;;5.40;99.90;;;;;;5051255;28;20049;-79
2023/04/11 10:40:04;;;;;;;5.43;1.00;;;5.30;99.90;;;;;;5071132;28;20045;-79
2023/04/11 10:42:31;;;;;;;3.10;0.90;;;5.20;99.90;;;;;;5068953;28;20408;-79
2023/04/11 10:45:16;;;;;;;4.03;1.02;;;5.20;99.90;;;;;;5063675;28;20096;-78
2023/04/11 10:47:55;;;;;;;4.93;1.27;;;5.30;99.90;;;;;;5058569;28;20106;-80
2023/04/11 10:50:27;;;;;;;5.15;1.40;;;5.40;99.90;;;;;;5056016;28;20068;-79
2023/04/11 10:52:54;;;;;;;6.03;1.40;;;5.40;99.90;;;;;;5054813;28;20118;-79
2023/04/11 10:55:20;;;;;;;9.23;2.50;;;5.60;99.90;;;;;;5059073;28;20086;-80
2023/04/11 10:58:09;;;;;;;7.82;1.70;;;5.70;99.90;;;;;;5068598;28;20047;-80
2023/04/11 11:00:48;;;;;;;10.15;1.80;;;5.80;99.90;;;;;;5054439;28;20051;-79
2023/04/11 11:03:25;;;;;;;6.80;1.33;;;5.80;99.90;;;;;;5060299;28;20053;-79
2023/04/11 11:05:57;;;;;;;4.00;0.95;;;5.80;99.90;;;;;;5057264;28;20094;-80
2023/04/11 11:08:29;;;;;;;7.20;1.63;;;5.80;99.90;;;;;;5056248;28;20067;-79
2023/04/11 11:11:03;;;;;;;7.03;1.90;;;5.80;99.90;;;;;;5057167;28;20120;-79
2023/04/11 11:13:46;;;;;;;4.53;1.48;;;5.90;99.90;;;;;;5055026;28;20055;-79
2023/04/11 11:16:22;;;;;;;7.15;1.55;;;5.90;99.90;;;;;;5054229;28;20052;-79
2023/04/11 11:18:51;;;;;;;4.60;1.27;;;5.90;99.90;;;;;;5055613;28;20045;-79
2023/04/11 11:21:19;;;;;;;5.10;1.35;;;5.90;99.90;;;;;;5055162;28;20051;-79
2023/04/11 11:23:59;;;;;;;5.50;1.15;;;5.90;99.90;;;;;;5059700;28;20045;-80
2023/04/11 11:26:36;;;;;;;5.03;1.20;;;6.00;99.90;;;;;;5065462;28;20087;-80
2023/04/11 11:29:02;;;;;;;4.75;1.30;;;6.20;99.90;;;;;;5054263;28;20569;-79
2023/04/11 11:31:44;;;;;;;6.47;1.60;;;6.60;99.90;;;;;;5055654;28;20068;-79
2023/04/11 11:34:10;;;;;;;4.65;1.33;;;6.90;99.90;;;;;;5054388;28;20041;-80
2023/04/11 11:36:42;;;;;;;7.43;1.88;;;6.90;99.90;;;;;;5063941;28;20052;-80
2023/04/11 11:39:09;;;;;;;7.90;1.38;;;6.80;99.90;;;;;;5061856;28;20044;-80
2023/04/11 11:41:39;;;;;;;5.55;1.38;;;6.70;99.90;;;;;;5055989;28;20040;-79
2023/04/11 11:44:05;;;;;;;7.70;1.27;;;6.70;99.90;;;;;;5053605;28;20040;-80
2023/04/11 11:46:32;;;;;;;7.45;1.42;;;6.70;99.90;;;;;;5061834;28;20055;-79
2023/04/11 11:48:58;;;;;;;6.75;1.88;;;6.70;99.90;;;;;;5060245;28;20096;-79
2023/04/11 11:51:23;;;;;;;7.03;1.45;;;6.70;99.90;;;;;;5065860;28;20556;-80
2023/04/11 11:54:08;;;;;;;7.43;1.30;;;6.80;99.90;;;;;;5067909;28;20503;-79
2023/04/11 11:56:38;;;;;;;9.02;2.20;;;7.00;99.90;;;;;;5061000;28;20072;-80
2023/04/11 11:59:05;;;;;;;5.95;1.75;;;7.40;99.90;;;;;;5078846;28;20043;-82
2023/04/11 12:01:32;;;;;;;14.52;1.98;;;7.80;99.90;;;;;;5075216;28;20362;-83
2023/04/11 12:03:58;;;;;;;10.35;2.90;;;8.20;99.90;;;;;;5052510;28;20120;-83
2023/04/11 12:06:30;;;;;;;9.50;2.10;;;8.70;99.90;;;;;;5036119;28;20045;-82
2023/04/11 12:09:09;;;;;;;9.05;2.03;;;9.10;99.90;;;;;;5052629;28;20045;-83
2023/04/11 12:11:36;;;;;;;10.45;2.10;;;9.50;99.90;;;;;;5051988;28;20084;-85
2023/04/11 12:14:02;;;;;;;10.88;2.10;;;9.70;99.90;;;;;;5051049;28;20040;-85
2023/04/11 12:16:28;;;;;;;10.07;2.28;;;9.70;99.90;;;;;;5052806;28;20052;-84
2023/04/11 12:18:57;;;;;;;8.65;1.92;;;9.70;99.90;;;;;;5078270;28;20039;-84
2023/04/11 12:21:23;;;;;;;5.72;1.90;;;9.50;99.90;;;;;;5066139;28;20056;-84
2023/04/11 12:23:48;;;;;;;6.85;1.40;;;9.40;99.90;;;;;;5065608;28;20520;-84
2023/04/11 12:26:14;;;;;;;7.32;1.75;;;9.40;99.90;;;;;;5050963;28;20068;-84
2023/04/11 12:28:40;;;;;;;9.82;1.83;;;9.50;99.90;;;;;;5051044;28;20582;-85
2023/04/11 12:31:05;;;;;;;9.65;2.25;;;10.10;99.90;;;;;;5050936;28;20037;-85
2023/04/11 12:33:31;;;;;;;10.55;2.10;;;10.60;99.90;;;;;;5050979;28;20051;-85
2023/04/11 12:35:56;;;;;;;8.80;1.98;;;10.60;99.90;;;;;;5050472;28;20052;-85
2023/04/11 12:38:22;;;;;;;8.65;2.08;;;10.50;99.90;;;;;;5050769;28;20557;-84
2023/04/11 12:40:47;;;;;;;11.25;2.10;;;10.20;99.90;;;;;;5050650;28;20467;-84
2023/04/11 12:43:13;;;;;;;8.68;1.92;;;10.30;99.90;;;;;;5050481;28;20040;-86
2023/04/11 12:45:38;;;;;;;11.32;2.10;;;10.80;99.90;;;;;;5053181;28;20120;-87
2023/04/11 12:48:04;;;;;;;11.02;1.90;;;11.30;99.90;;;;;;5048350;28;20051;-85
2023/04/11 12:50:30;;;;;;;9.50;2.47;;;11.50;99.90;;;;;;5069726;28;20395;-84
2023/04/11 12:52:55;;;;;;;7.43;1.48;;;11.40;99.90;;;;;;5050934;28;20049;-82